sensor_id;sensor_type;location;lat;lon;timestamp;pressure;altitude;pressure_sealevel;temperature;humidity
3294;BME280;1659;51.470;6.770;2023-04-03T00:01:07;102840.28;;;1.02;91.13
3294;BME280;1659;51.470;6.770;2023-04-03T00:03:34;102846.19;;;0.99;91.36
3294;BME280;1659;51.470;6.770;2023-04-03T00:06:00;102853.03;;;0.97;91.09
3294;BME280;1659;51.470;6.770;2023-04-03T00:08:27;102855.53;;;0.96;91.57
3294;BME280;1659;51.470;6.770;2023-04-03T00:10:55;102849.38;;;0.93;91.31
3294;BME280;1659;51.470;6.770;2023-04-03T00:13:22;102845.78;;;0.91;91.69
3294;BME280;1659;51.470;6.770;2023-04-03T00:15:49;102843.97;;;0.90;91.57
3294;BME280;1659;51.470;6.770;2023-04-03T00:18:17;102853.50;;;0.90;92.04
3294;BME280;1659;51.470;6.770;2023-04-03T00:20:43;102850.81;;;0.88;91.95
3294;BME280;1659;51.470;6.770;2023-04-03T00:23:10;102843.75;;;0.86;91.59
3294;BME280;1659;51.470;6.770;2023-04-03T00:25:36;102850.66;;;0.85;91.57
3294;BME280;1659;51.470;6.770;2023-04-03T00:28:04;102847.91;;;0.82;92.16
3294;BME280;1659;51.470;6.770;2023-04-03T00:30:31;102847.81;;;0.81;92.06
3294;BME280;1659;51.470;6.770;2023-04-03T00:32:58;102844.28;;;0.80;92.29
3294;BME280;1659;51.470;6.770;2023-04-03T00:35:27;102838.94;;;0.77;92.26
3294;BME280;1659;51.470;6.770;2023-04-03T00:37:55;102844.94;;;0.76;92.10
3294;BME280;1659;51.470;6.770;2023-04-03T00:40:24;102843.97;;;0.74;91.95
3294;BME280;1659;51.470;6.770;2023-04-03T00:42:56;102848.28;;;0.73;92.52
3294;BME280;1659;51.470;6.770;2023-04-03T00:45:35;102843.81;;;0.71;92.09
3294;BME280;1659;51.470;6.770;2023-04-03T00:48:04;102849.78;;;0.70;92.41
3294;BME280;1659;51.470;6.770;2023-04-03T00:50:35;102851.44;;;0.68;92.62
3294;BME280;1659;51.470;6.770;2023-04-03T00:53:04;102851.44;;;0.68;92.34
3294;BME280;1659;51.470;6.770;2023-04-03T00:55:31;102852.34;;;0.68;92.50
3294;BME280;1659;51.470;6.770;2023-04-03T00:57:59;102854.94;;;0.68;92.80
3294;BME280;1659;51.470;6.770;2023-04-03T01:00:27;102847.13;;;0.68;92.26
3294;BME280;1659;51.470;6.770;2023-04-03T01:02:54;102858.44;;;0.69;92.49
3294;BME280;1659;51.470;6.770;2023-04-03T01:05:21;102847.94;;;0.67;93.11
3294;BME280;1659;51.470;6.770;2023-04-03T01:07:51;102855.75;;;0.67;92.46
3294;BME280;1659;51.470;6.770;2023-04-03T01:10:19;102857.47;;;0.67;92.88
3294;BME280;1659;51.470;6.770;2023-04-03T01:12:48;102857.38;;;0.65;93.10
3294;BME280;1659;51.470;6.770;2023-04-03T01:15:17;102858.09;;;0.63;92.86
3294;BME280;1659;51.470;6.770;2023-04-03T01:17:45;102861.44;;;0.60;92.54
3294;BME280;1659;51.470;6.770;2023-04-03T01:23:27;102866.19;;;0.52;93.41
3294;BME280;1659;51.470;6.770;2023-04-03T01:25:57;102865.19;;;0.50;93.10
3294;BME280;1659;51.470;6.770;2023-04-03T01:28:26;102866.72;;;0.47;93.45
3294;BME280;1659;51.470;6.770;2023-04-03T01:30:58;102865.84;;;0.46;93.64
3294;BME280;1659;51.470;6.770;2023-04-03T01:33:28;102868.53;;;0.48;93.33
3294;BME280;1659;51.470;6.770;2023-04-03T01:35:55;102873.00;;;0.50;93.78
3294;BME280;1659;51.470;6.770;2023-04-03T01:38:21;102881.00;;;0.53;93.18
3294;BME280;1659;51.470;6.770;2023-04-03T01:40:48;102881.25;;;0.58;93.48
3294;BME280;1659;51.470;6.770;2023-04-03T01:43:15;102881.41;;;0.61;93.20
3294;BME280;1659;51.470;6.770;2023-04-03T01:45:41;102876.38;;;0.64;93.87
3294;BME280;1659;51.470;6.770;2023-04-03T01:48:08;102882.66;;;0.68;93.42
3294;BME280;1659;51.470;6.770;2023-04-03T01:50:35;102878.44;;;0.70;93.76
3294;BME280;1659;51.470;6.770;2023-04-03T01:53:02;102871.63;;;0.72;93.47
3294;BME280;1659;51.470;6.770;2023-04-03T01:55:29;102877.91;;;0.75;93.70
3294;BME280;1659;51.470;6.770;2023-04-03T01:57:55;102874.56;;;0.78;93.52
3294;BME280;1659;51.470;6.770;2023-04-03T02:00:22;102885.06;;;0.80;93.74
3294;BME280;1659;51.470;6.770;2023-04-03T02:02:48;102872.22;;;0.83;93.67
3294;BME280;1659;51.470;6.770;2023-04-03T02:05:15;102873.19;;;0.85;93.06
3294;BME280;1659;51.470;6.770;2023-04-03T02:07:43;102877.59;;;0.86;93.40
3294;BME280;1659;51.470;6.770;2023-04-03T02:10:10;102879.38;;;0.87;93.61
3294;BME280;1659;51.470;6.770;2023-04-03T02:12:36;102882.81;;;0.86;93.72
3294;BME280;1659;51.470;6.770;2023-04-03T02:15:04;102882.06;;;0.88;93.31
3294;BME280;1659;51.470;6.770;2023-04-03T02:17:30;102888.16;;;0.89;93.55
3294;BME280;1659;51.470;6.770;2023-04-03T02:19:57;102894.41;;;0.92;93.45
3294;BME280;1659;51.470;6.770;2023-04-03T02:22:24;102889.22;;;0.92;94.29
3294;BME280;1659;51.470;6.770;2023-04-03T02:24:51;102887.44;;;0.91;94.15
3294;BME280;1659;51.470;6.770;2023-04-03T02:27:18;102893.44;;;0.90;93.84
3294;BME280;1659;51.470;6.770;2023-04-03T02:29:45;102887.34;;;0.90;94.15
3294;BME280;1659;51.470;6.770;2023-04-03T02:32:11;102882.25;;;0.91;93.98
3294;BME280;1659;51.470;6.770;2023-04-03T02:34:38;102884.84;;;0.91;94.18
3294;BME280;1659;51.470;6.770;2023-04-03T02:37:04;102887.44;;;0.91;93.67
3294;BME280;1659;51.470;6.770;2023-04-03T02:39:31;102881.41;;;0.92;94.07
3294;BME280;1659;51.470;6.770;2023-04-03T02:41:59;102881.41;;;0.92;94.44
3294;BME280;1659;51.470;6.770;2023-04-03T02:44:25;102883.22;;;0.93;93.78
3294;BME280;1659;51.470;6.770;2023-04-03T02:46:52;102880.59;;;0.93;94.55
3294;BME280;1659;51.470;6.770;2023-04-03T02:49:19;102878.88;;;0.94;94.48
3294;BME280;1659;51.470;6.770;2023-04-03T02:51:45;102884.19;;;0.96;94.53
3294;BME280;1659;51.470;6.770;2023-04-03T02:54:12;102886.22;;;1.01;94.61
3294;BME280;1659;51.470;6.770;2023-04-03T02:56:39;102892.34;;;1.02;94.01
3294;BME280;1659;51.470;6.770;2023-04-03T02:59:07;102890.72;;;1.04;94.10
3294;BME280;1659;51.470;6.770;2023-04-03T03:01:34;102891.50;;;1.03;94.07
3294;BME280;1659;51.470;6.770;2023-04-03T03:04:01;102896.72;;;1.03;94.09
3294;BME280;1659;51.470;6.770;2023-04-03T03:06:28;102894.94;;;1.02;94.07
3294;BME280;1659;51.470;6.770;2023-04-03T03:08:54;102900.16;;;1.02;94.54
3294;BME280;1659;51.470;6.770;2023-04-03T03:11:21;102897.56;;;1.02;94.25
3294;BME280;1659;51.470;6.770;2023-04-03T03:13:48;102906.25;;;1.02;94.22
3294;BME280;1659;51.470;6.770;2023-04-03T03:16:16;102902.75;;;1.02;94.19
3294;BME280;1659;51.470;6.770;2023-04-03T03:18:42;102902.59;;;0.99;94.12
3294;BME280;1659;51.470;6.770;2023-04-03T03:21:09;102894.78;;;0.99;94.60
3294;BME280;1659;51.470;6.770;2023-04-03T03:23:36;102900.97;;;1.01;94.79
3294;BME280;1659;51.470;6.770;2023-04-03T03:26:04;102907.06;;;1.01;94.05
3294;BME280;1659;51.470;6.770;2023-04-03T03:28:31;102900.28;;;1.05;94.39
3294;BME280;1659;51.470;6.770;2023-04-03T03:30:58;102901.22;;;1.05;94.11
3294;BME280;1659;51.470;6.770;2023-04-03T03:33:26;102906.59;;;1.08;94.50
3294;BME280;1659;51.470;6.770;2023-04-03T03:35:53;102904.06;;;1.10;94.26
3294;BME280;1659;51.470;6.770;2023-04-03T03:38:20;102897.38;;;1.15;94.00
3294;BME280;1659;51.470;6.770;2023-04-03T03:40:47;102901.88;;;1.18;94.08
3294;BME280;1659;51.470;6.770;2023-04-03T03:43:14;102893.25;;;1.19;94.16
3294;BME280;1659;51.470;6.770;2023-04-03T03:45:41;102900.34;;;1.21;94.24
3294;BME280;1659;51.470;6.770;2023-04-03T03:48:08;102892.63;;;1.23;94.49
3294;BME280;1659;51.470;6.770;2023-04-03T03:50:36;102898.06;;;1.27;94.48
3294;BME280;1659;51.470;6.770;2023-04-03T03:53:02;102900.13;;;1.33;94.08
3294;BME280;1659;51.470;6.770;2023-04-03T03:55:29;102895.78;;;1.34;93.70
3294;BME280;1659;51.470;6.770;2023-04-03T03:57:55;102897.50;;;1.33;93.88
3294;BME280;1659;51.470;6.770;2023-04-03T04:00:22;102904.41;;;1.32;94.22
3294;BME280;1659;51.470;6.770;2023-04-03T04:02:49;102895.78;;;1.34;94.10
3294;BME280;1659;51.470;6.770;2023-04-03T04:05:15;102901.78;;;1.32;93.43
3294;BME280;1659;51.470;6.770;2023-04-03T04:07:43;102904.41;;;1.32;94.15
3294;BME280;1659;51.470;6.770;2023-04-03T04:10:10;102902.53;;;1.30;93.76
3294;BME280;1659;51.470;6.770;2023-04-03T04:12:36;102913.75;;;1.29;94.03
3294;BME280;1659;51.470;6.770;2023-04-03T04:15:03;102910.19;;;1.27;93.80
3294;BME280;1659;51.470;6.770;2023-04-03T04:17:30;102915.47;;;1.28;94.08
3294;BME280;1659;51.470;6.770;2023-04-03T04:19:57;102916.28;;;1.27;93.15
3294;BME280;1659;51.470;6.770;2023-04-03T04:22:23;102926.66;;;1.26;93.20
3294;BME280;1659;51.470;6.770;2023-04-03T04:24:51;102924.56;;;1.20;93.59
3294;BME280;1659;51.470;6.770;2023-04-03T04:27:18;102927.19;;;1.20;93.98
3294;BME280;1659;51.470;6.770;2023-04-03T04:29:44;102934.03;;;1.18;93.31
3294;BME280;1659;51.470;6.770;2023-04-03T04:32:11;102930.53;;;1.18;93.70
3294;BME280;1659;51.470;6.770;2023-04-03T04:34:37;102927.84;;;1.16;93.42
3294;BME280;1659;51.470;6.770;2023-04-03T04:37:04;102927.75;;;1.15;93.40
3294;BME280;1659;51.470;6.770;2023-04-03T04:39:30;102929.38;;;1.12;93.79
3294;BME280;1659;51.470;6.770;2023-04-03T04:41:58;102936.22;;;1.10;93.76
3294;BME280;1659;51.470;6.770;2023-04-03T04:44:25;102933.53;;;1.09;93.40
3294;BME280;1659;51.470;6.770;2023-04-03T04:46:51;102942.06;;;1.06;93.66
3294;BME280;1659;51.470;6.770;2023-04-03T04:49:18;102947.91;;;1.02;93.29
3294;BME280;1659;51.470;6.770;2023-04-03T04:51:45;102947.66;;;0.98;93.33
3294;BME280;1659;51.470;6.770;2023-04-03T04:54:11;102950.16;;;0.96;92.98
3294;BME280;1659;51.470;6.770;2023-04-03T04:56:38;102950.81;;;0.92;93.51
3294;BME280;1659;51.470;6.770;2023-04-03T04:59:05;102960.34;;;0.91;93.28
3294;BME280;1659;51.470;6.770;2023-04-03T05:01:32;102952.44;;;0.90;93.67
3294;BME280;1659;51.470;6.770;2023-04-03T05:03:59;102961.13;;;0.90;93.14
3294;BME280;1659;51.470;6.770;2023-04-03T05:06:25;102951.38;;;0.86;93.06
3294;BME280;1659;51.470;6.770;2023-04-03T05:08:52;102962.56;;;0.85;92.93
3294;BME280;1659;51.470;6.770;2023-04-03T05:11:18;102954.69;;;0.84;92.88
3294;BME280;1659;51.470;6.770;2023-04-03T05:13:45;102956.22;;;0.80;93.36
3294;BME280;1659;51.470;6.770;2023-04-03T05:16:13;102964.03;;;0.80;92.97
3294;BME280;1659;51.470;6.770;2023-04-03T05:18:39;102962.25;;;0.79;93.13
3294;BME280;1659;51.470;6.770;2023-04-03T05:21:06;102962.16;;;0.78;92.96
3294;BME280;1659;51.470;6.770;2023-04-03T05:23:33;102965.66;;;0.78;93.66
3294;BME280;1659;51.470;6.770;2023-04-03T05:25:59;102962.34;;;0.81;93.31
3294;BME280;1659;51.470;6.770;2023-04-03T05:28:26;102965.91;;;0.83;93.40
3294;BME280;1659;51.470;6.770;2023-04-03T05:30:53;102963.41;;;0.84;93.13
3294;BME280;1659;51.470;6.770;2023-04-03T05:33:22;102964.47;;;0.88;93.37
3294;BME280;1659;51.470;6.770;2023-04-03T05:35:48;102969.88;;;0.91;93.34
3294;BME280;1659;51.470;6.770;2023-04-03T05:38:15;102968.31;;;0.94;92.67
3294;BME280;1659;51.470;6.770;2023-04-03T05:40:41;102976.38;;;0.99;93.20
3294;BME280;1659;51.470;6.770;2023-04-03T05:43:08;102971.44;;;1.04;93.19
3294;BME280;1659;51.470;6.770;2023-04-03T05:45:35;102981.28;;;1.09;92.80
3294;BME280;1659;51.470;6.770;2023-04-03T05:48:02;102983.25;;;1.13;93.14
3294;BME280;1659;51.470;6.770;2023-04-03T05:50:30;102985.41;;;1.21;92.94
3294;BME280;1659;51.470;6.770;2023-04-03T05:52:57;102994.44;;;1.27;92.51
3294;BME280;1659;51.470;6.770;2023-04-03T05:55:25;102995.75;;;1.36;93.02
3294;BME280;1659;51.470;6.770;2023-04-03T05:57:51;102999.69;;;1.44;93.01
3294;BME280;1659;51.470;6.770;2023-04-03T06:00:19;102997.56;;;1.53;92.66
3294;BME280;1659;51.470;6.770;2023-04-03T06:02:46;103004.91;;;1.60;92.39
3294;BME280;1659;51.470;6.770;2023-04-03T06:05:12;103010.56;;;1.68;92.24
3294;BME280;1659;51.470;6.770;2023-04-03T06:07:41;103010.06;;;1.75;91.88
3294;BME280;1659;51.470;6.770;2023-04-03T06:10:08;103007.06;;;1.84;92.22
3294;BME280;1659;51.470;6.770;2023-04-03T06:12:35;103003.88;;;1.89;91.98
3294;BME280;1659;51.470;6.770;2023-04-03T06:15:02;103009.38;;;1.96;91.21
3294;BME280;1659;51.470;6.770;2023-04-03T06:17:28;103012.41;;;2.03;91.55
3294;BME280;1659;51.470;6.770;2023-04-03T06:19:55;103011.16;;;2.13;91.68
3294;BME280;1659;51.470;6.770;2023-04-03T06:22:23;102996.81;;;2.21;91.38
3294;BME280;1659;51.470;6.770;2023-04-03T06:24:52;103003.63;;;2.36;91.85
3294;BME280;1659;51.470;6.770;2023-04-03T06:27:18;103007.94;;;2.52;92.18
3294;BME280;1659;51.470;6.770;2023-04-03T06:29:45;102995.88;;;2.72;92.29
3294;BME280;1659;51.470;6.770;2023-04-03T06:32:12;102995.34;;;2.97;93.32
3294;BME280;1659;51.470;6.770;2023-04-03T06:34:38;102990.63;;;3.26;94.53
3294;BME280;1659;51.470;6.770;2023-04-03T06:37:05;102987.88;;;3.60;94.37
3294;BME280;1659;51.470;6.770;2023-04-03T06:39:31;102984.22;;;3.95;94.43
3294;BME280;1659;51.470;6.770;2023-04-03T06:42:00;102992.34;;;4.42;94.09
3294;BME280;1659;51.470;6.770;2023-04-03T06:44:26;102981.06;;;4.87;94.32
3294;BME280;1659;51.470;6.770;2023-04-03T06:46:53;102988.03;;;5.30;93.48
3294;BME280;1659;51.470;6.770;2023-04-03T06:49:19;102996.78;;;5.77;92.12
3294;BME280;1659;51.470;6.770;2023-04-03T06:51:46;102988.47;;;6.13;90.46
3294;BME280;1659;51.470;6.770;2023-04-03T06:54:13;102986.88;;;6.42;88.66
3294;BME280;1659;51.470;6.770;2023-04-03T06:56:40;102994.41;;;6.57;86.60
3294;BME280;1659;51.470;6.770;2023-04-03T06:59:09;103001.75;;;6.68;86.44
3294;BME280;1659;51.470;6.770;2023-04-03T07:01:36;103011.81;;;6.81;85.22
3294;BME280;1659;51.470;6.770;2023-04-03T07:04:03;103009.63;;;6.95;82.79
3294;BME280;1659;51.470;6.770;2023-04-03T07:06:30;103009.28;;;7.11;82.12
3294;BME280;1659;51.470;6.770;2023-04-03T07:08:59;103004.78;;;7.36;81.94
3294;BME280;1659;51.470;6.770;2023-04-03T07:11:26;103009.69;;;7.84;81.55
3294;BME280;1659;51.470;6.770;2023-04-03T07:13:52;103008.50;;;8.37;81.36
3294;BME280;1659;51.470;6.770;2023-04-03T07:16:20;103008.38;;;8.64;79.18
3294;BME280;1659;51.470;6.770;2023-04-03T07:18:47;103006.66;;;9.02;78.77
3294;BME280;1659;51.470;6.770;2023-04-03T07:21:13;103006.78;;;9.47;77.59
3294;BME280;1659;51.470;6.770;2023-04-03T07:23:40;103006.25;;;10.06;76.33
3294;BME280;1659;51.470;6.770;2023-04-03T07:26:07;103004.72;;;10.64;74.79
3294;BME280;1659;51.470;6.770;2023-04-03T07:28:34;103010.06;;;11.25;72.88
3294;BME280;1659;51.470;6.770;2023-04-03T07:31:03;103008.91;;;11.72;71.05
3294;BME280;1659;51.470;6.770;2023-04-03T07:33:32;103010.09;;;11.94;68.66
3294;BME280;1659;51.470;6.770;2023-04-03T07:35:59;103017.31;;;12.09;66.77
3294;BME280;1659;51.470;6.770;2023-04-03T07:38:26;103010.38;;;12.20;65.30
3294;BME280;1659;51.470;6.770;2023-04-03T07:40:53;103010.53;;;12.36;63.35
3294;BME280;1659;51.470;6.770;2023-04-03T07:43:21;103010.84;;;12.70;63.16
3294;BME280;1659;51.470;6.770;2023-04-03T07:45:48;103016.50;;;13.19;62.38
3294;BME280;1659;51.470;6.770;2023-04-03T07:48:16;103014.09;;;13.54;61.14
3294;BME280;1659;51.470;6.770;2023-04-03T07:50:44;103017.63;;;13.53;60.02
3294;BME280;1659;51.470;6.770;2023-04-03T07:53:11;103017.53;;;13.35;57.97
3294;BME280;1659;51.470;6.770;2023-04-03T07:55:38;103021.06;;;13.32;57.83
3294;BME280;1659;51.470;6.770;2023-04-03T07:58:08;103019.41;;;13.51;57.25
3294;BME280;1659;51.470;6.770;2023-04-03T08:00:35;103014.09;;;13.59;55.62
3294;BME280;1659;51.470;6.770;2023-04-03T08:03:02;103018.63;;;13.78;55.65
3294;BME280;1659;51.470;6.770;2023-04-03T08:05:29;103026.53;;;13.68;54.83
3294;BME280;1659;51.470;6.770;2023-04-03T08:07:57;103023.88;;;13.60;53.97
3294;BME280;1659;51.470;6.770;2023-04-03T08:10:24;103017.69;;;13.66;54.71
3294;BME280;1659;51.470;6.770;2023-04-03T08:12:50;103015.03;;;13.67;53.26
3294;BME280;1659;51.470;6.770;2023-04-03T08:15:17;103019.56;;;13.96;53.54
3294;BME280;1659;51.470;6.770;2023-04-03T08:17:44;103025.78;;;13.98;51.77
3294;BME280;1659;51.470;6.770;2023-04-03T08:20:11;103023.06;;;13.78;51.43
3294;BME280;1659;51.470;6.770;2023-04-03T08:22:37;103022.09;;;13.56;50.70
3294;BME280;1659;51.470;6.770;2023-04-03T08:25:07;103022.19;;;13.77;51.18
3294;BME280;1659;51.470;6.770;2023-04-03T08:27:34;103018.69;;;13.94;50.12
3294;BME280;1659;51.470;6.770;2023-04-03T08:30:00;103019.56;;;13.91;50.10
3294;BME280;1659;51.470;6.770;2023-04-03T08:32:27;103018.63;;;13.80;50.23
3294;BME280;1659;51.470;6.770;2023-04-03T08:34:54;103024.06;;;14.19;50.97
3294;BME280;1659;51.470;6.770;2023-04-03T08:37:21;103027.72;;;14.70;50.17
3294;BME280;1659;51.470;6.770;2023-04-03T08:39:47;103029.47;;;14.96;50.19
3294;BME280;1659;51.470;6.770;2023-04-03T08:42:21;103031.25;;;14.98;49.45
3294;BME280;1659;51.470;6.770;2023-04-03T08:44:55;103025.88;;;15.20;50.13
3294;BME280;1659;51.470;6.770;2023-04-03T08:47:26;103024.91;;;15.59;50.68
3294;BME280;1659;51.470;6.770;2023-04-03T08:49:57;103016.78;;;15.96;49.43
3294;BME280;1659;51.470;6.770;2023-04-03T08:52:32;103026.50;;;16.02;49.08
3294;BME280;1659;51.470;6.770;2023-04-03T08:55:02;103027.38;;;16.12;48.22
3294;BME280;1659;51.470;6.770;2023-04-03T08:57:33;103021.25;;;15.88;47.79
3294;BME280;1659;51.470;6.770;2023-04-03T09:00:11;103027.53;;;15.73;48.60
3294;BME280;1659;51.470;6.770;2023-04-03T09:02:43;103028.44;;;15.64;47.15
3294;BME280;1659;51.470;6.770;2023-04-03T09:05:15;103031.06;;;15.74;47.94
3294;BME280;1659;51.470;6.770;2023-04-03T09:07:44;103030.97;;;15.98;48.09
3294;BME280;1659;51.470;6.770;2023-04-03T09:10:23;103022.13;;;15.92;46.47
3294;BME280;1659;51.470;6.770;2023-04-03T09:12:57;103031.91;;;15.86;46.30
3294;BME280;1659;51.470;6.770;2023-04-03T09:15:26;103035.53;;;15.76;46.60
3294;BME280;1659;51.470;6.770;2023-04-03T09:17:59;103033.72;;;15.86;46.22
3294;BME280;1659;51.470;6.770;2023-04-03T09:20:39;103035.56;;;15.64;44.02
3294;BME280;1659;51.470;6.770;2023-04-03T09:23:17;103041.88;;;15.20;42.75
3294;BME280;1659;51.470;6.770;2023-04-03T09:25:45;103041.91;;;15.15;43.65
3294;BME280;1659;51.470;6.770;2023-04-03T09:28:13;103042.78;;;14.85;41.86
3294;BME280;1659;51.470;6.770;2023-04-03T09:30:40;103040.16;;;14.66;41.60
3294;BME280;1659;51.470;6.770;2023-04-03T09:33:06;103037.44;;;14.54;41.73
3294;BME280;1659;51.470;6.770;2023-04-03T09:35:34;103029.50;;;14.62;42.61
3294;BME280;1659;51.470;6.770;2023-04-03T09:38:15;103027.72;;;14.67;40.74
3294;BME280;1659;51.470;6.770;2023-04-03T09:40:42;103032.06;;;14.43;42.16
3294;BME280;1659;51.470;6.770;2023-04-03T09:43:25;103036.59;;;14.60;42.09
3294;BME280;1659;51.470;6.770;2023-04-03T09:45:52;103027.69;;;14.88;40.97
3294;BME280;1659;51.470;6.770;2023-04-03T09:48:20;103046.28;;;14.51;39.71
3294;BME280;1659;51.470;6.770;2023-04-03T09:50:57;103036.50;;;14.40;40.38
3294;BME280;1659;51.470;6.770;2023-04-03T09:53:30;103031.22;;;14.38;39.47
3294;BME280;1659;51.470;6.770;2023-04-03T09:55:58;103032.09;;;14.29;39.77
3294;BME280;1659;51.470;6.770;2023-04-03T09:58:28;103040.06;;;14.34;39.88
3294;BME280;1659;51.470;6.770;2023-04-03T10:00:57;103029.38;;;14.19;39.58
3294;BME280;1659;51.470;6.770;2023-04-03T10:03:28;103032.91;;;14.14;39.74
3294;BME280;1659;51.470;6.770;2023-04-03T10:05:55;103031.16;;;14.20;38.82
3294;BME280;1659;51.470;6.770;2023-04-03T10:08:25;103039.00;;;13.79;37.25
3294;BME280;1659;51.470;6.770;2023-04-03T10:11:13;103021.31;;;13.92;39.33
3294;BME280;1659;51.470;6.770;2023-04-03T10:13:51;103032.06;;;14.26;38.11
3294;BME280;1659;51.470;6.770;2023-04-03T10:16:20;103027.63;;;14.18;36.51
3294;BME280;1659;51.470;6.770;2023-04-03T10:18:53;103032.03;;;14.14;37.63
3294;BME280;1659;51.470;6.770;2023-04-03T10:21:32;103017.88;;;14.24;37.66
3294;BME280;1659;51.470;6.770;2023-04-03T10:24:08;103024.97;;;14.19;37.52
3294;BME280;1659;51.470;6.770;2023-04-03T10:26:43;103015.25;;;14.35;37.13
3294;BME280;1659;51.470;6.770;2023-04-03T10:29:21;103001.06;;;14.39;36.96
3294;BME280;1659;51.470;6.770;2023-04-03T10:31:58;103007.31;;;14.58;37.74
3294;BME280;1659;51.470;6.770;2023-04-03T10:34:29;102993.13;;;14.59;37.36
3294;BME280;1659;51.470;6.770;2023-04-03T10:37:03;103001.09;;;14.79;37.90
3294;BME280;1659;51.470;6.770;2023-04-03T10:39:38;102994.88;;;14.83;37.62
3294;BME280;1659;51.470;6.770;2023-04-03T10:42:13;102993.97;;;14.95;37.21
3294;BME280;1659;51.470;6.770;2023-04-03T10:44:55;102996.63;;;14.92;38.02
3294;BME280;1659;51.470;6.770;2023-04-03T10:47:29;102986.88;;;14.97;37.33
3294;BME280;1659;51.470;6.770;2023-04-03T10:50:04;102993.97;;;14.94;36.91
3294;BME280;1659;51.470;6.770;2023-04-03T10:52:43;102986.00;;;14.66;35.91
3294;BME280;1659;51.470;6.770;2023-04-03T10:55:24;102993.91;;;14.15;35.73
3294;BME280;1659;51.470;6.770;2023-04-03T10:57:58;102991.25;;;14.16;36.19
3294;BME280;1659;51.470;6.770;2023-04-03T11:00:32;102986.81;;;13.98;36.44
3294;BME280;1659;51.470;6.770;2023-04-03T11:03:03;102975.31;;;14.23;37.36
3294;BME280;1659;51.470;6.770;2023-04-03T11:05:35;102984.22;;;14.49;37.06
3294;BME280;1659;51.470;6.770;2023-04-03T11:08:07;102971.81;;;14.44;36.07
3294;BME280;1659;51.470;6.770;2023-04-03T11:10:41;102969.13;;;14.33;36.44
3294;BME280;1659;51.470;6.770;2023-04-03T11:13:13;102964.69;;;14.43;35.84
3294;BME280;1659;51.470;6.770;2023-04-03T11:15:43;102969.16;;;14.61;37.04
3294;BME280;1659;51.470;6.770;2023-04-03T11:18:13;102969.16;;;14.82;37.06
3294;BME280;1659;51.470;6.770;2023-04-03T11:20:44;102956.75;;;14.72;37.05
3294;BME280;1659;51.470;6.770;2023-04-03T11:23:19;102968.25;;;14.54;36.10
3294;BME280;1659;51.470;6.770;2023-04-03T11:25:50;102971.78;;;14.39;35.88
3294;BME280;1659;51.470;6.770;2023-04-03T11:28:18;102962.03;;;14.24;36.35
3294;BME280;1659;51.470;6.770;2023-04-03T11:30:52;102960.25;;;14.22;36.54
3294;BME280;1659;51.470;6.770;2023-04-03T11:33:33;102956.72;;;14.44;37.03
3294;BME280;1659;51.470;6.770;2023-04-03T11:36:07;102956.69;;;14.26;36.07
3294;BME280;1659;51.470;6.770;2023-04-03T11:38:38;102954.94;;;14.28;36.99
3294;BME280;1659;51.470;6.770;2023-04-03T11:41:09;102951.41;;;14.66;37.24
3294;BME280;1659;51.470;6.770;2023-04-03T11:43:41;102949.63;;;14.37;35.81
3294;BME280;1659;51.470;6.770;2023-04-03T11:46:09;102950.50;;;14.21;37.16
3294;BME280;1659;51.470;6.770;2023-04-03T11:48:49;102946.09;;;14.47;36.95
3294;BME280;1659;51.470;6.770;2023-04-03T11:51:38;102944.28;;;14.89;37.14
3294;BME280;1659;51.470;6.770;2023-04-03T11:57:46;102949.63;;;14.93;36.86
3294;BME280;1659;51.470;6.770;2023-04-03T12:00:48;102939.78;;;15.16;37.30
3294;BME280;1659;51.470;6.770;2023-04-03T12:10:17;102928.94;;;15.59;36.16
3294;BME280;1659;51.470;6.770;2023-04-03T12:12:56;102923.44;;;15.96;36.18
3294;BME280;1659;51.470;6.770;2023-04-03T12:15:51;102933.03;;;16.25;35.44
3294;BME280;1659;51.470;6.770;2023-04-03T12:18:40;102925.13;;;16.11;34.81
3294;BME280;1659;51.470;6.770;2023-04-03T12:21:08;102915.31;;;16.12;35.17
3294;BME280;1659;51.470;6.770;2023-04-03T12:23:35;102910.94;;;16.03;34.92
3294;BME280;1659;51.470;6.770;2023-04-03T12:26:19;102914.50;;;16.02;34.22
3294;BME280;1659;51.470;6.770;2023-04-03T12:28:48;102912.75;;;16.01;34.71
3294;BME280;1659;51.470;6.770;2023-04-03T12:31:15;102904.53;;;16.27;34.87
3294;BME280;1659;51.470;6.770;2023-04-03T12:36:50;102886.41;;;16.63;34.86
3294;BME280;1659;51.470;6.770;2023-04-03T12:39:43;102887.06;;;16.88;34.38
3294;BME280;1659;51.470;6.770;2023-04-03T12:42:34;102893.97;;;17.08;33.79
3294;BME280;1659;51.470;6.770;2023-04-03T12:45:14;102892.69;;;16.59;33.32
3294;BME280;1659;51.470;6.770;2023-04-03T12:47:43;102893.84;;;16.29;33.27
3294;BME280;1659;51.470;6.770;2023-04-03T12:50:20;102882.22;;;16.37;33.40
3294;BME280;1659;51.470;6.770;2023-04-03T12:52:52;102875.84;;;16.49;33.26
3294;BME280;1659;51.470;6.770;2023-04-03T12:55:21;102886.19;;;16.83;33.54
3294;BME280;1659;51.470;6.770;2023-04-03T12:57:50;102868.91;;;17.18;33.08
3294;BME280;1659;51.470;6.770;2023-04-03T13:00:22;102859.97;;;17.17;32.50
3294;BME280;1659;51.470;6.770;2023-04-03T13:02:52;102884.03;;;17.17;32.48
3294;BME280;1659;51.470;6.770;2023-04-03T13:05:21;102872.88;;;16.78;31.92
3294;BME280;1659;51.470;6.770;2023-04-03T13:07:49;102871.09;;;16.79;32.36
3294;BME280;1659;51.470;6.770;2023-04-03T13:10:18;102855.84;;;16.95;32.60
3294;BME280;1659;51.470;6.770;2023-04-03T13:12:47;102863.44;;;17.27;32.19
3294;BME280;1659;51.470;6.770;2023-04-03T13:15:18;102865.25;;;17.24;32.31
3294;BME280;1659;51.470;6.770;2023-04-03T13:17:45;102859.91;;;17.25;31.55
3294;BME280;1659;51.470;6.770;2023-04-03T13:20:17;102866.22;;;17.20;31.73
3294;BME280;1659;51.470;6.770;2023-04-03T13:22:49;102867.97;;;17.21;31.62
3294;BME280;1659;51.470;6.770;2023-04-03T13:25:21;102866.72;;;16.73;31.49
3294;BME280;1659;51.470;6.770;2023-04-03T13:27:49;102857.97;;;16.57;31.54
3294;BME280;1659;51.470;6.770;2023-04-03T13:30:27;102856.16;;;16.61;31.54
3294;BME280;1659;51.470;6.770;2023-04-03T13:32:55;102852.75;;;16.50;32.01
3294;BME280;1659;51.470;6.770;2023-04-03T13:35:32;102847.88;;;16.90;31.74
3294;BME280;1659;51.470;6.770;2023-04-03T13:38:04;102859.41;;;16.94;31.70
3294;BME280;1659;51.470;6.770;2023-04-03T13:40:31;102852.28;;;16.93;31.57
3294;BME280;1659;51.470;6.770;2023-04-03T13:43:00;102854.19;;;16.78;30.64
3294;BME280;1659;51.470;6.770;2023-04-03T13:45:29;102854.56;;;16.45;31.17